Time;durP1;ratioP1;P1;durP2;ratioP2;P2;SDS_P1;SDS_P2;PMS_P1;PMS_P2;Temp;Humidity;BMP_temperature;BMP_pressure;BME280_temperature;BME280_humidity;BME280_pressure;Samples;Min_cycle;Max_cycle;Signal;HPM_P1;HPM_P2
2021/09/03 00:02:11;;;;;;;29.27;13.85;;;9.80;95.70;;;;;;4995157;28;20455;-68
2021/09/03 00:04:37;;;;;;;31.23;14.95;;;9.80;96.00;;;;;;5008627;28;20049;-69
2021/09/03 00:07:03;;;;;;;24.25;13.02;;;9.80;96.40;;;;;;4998162;28;20030;-69
2021/09/03 00:09:29;;;;;;;30.30;14.35;;;9.80;96.50;;;;;;5013330;28;20705;-68
2021/09/03 00:11:54;;;;;;;24.23;12.45;;;9.80;96.80;;;;;;5003634;28;20033;-68
2021/09/03 00:14:20;;;;;;;25.48;12.70;;;9.80;96.80;;;;;;5010823;28;20413;-66
2021/09/03 00:16:45;;;;;;;25.90;13.85;;;9.70;96.70;;;;;;4998722;28;20491;-69
2021/09/03 00:19:11;;;;;;;25.25;12.43;;;9.70;96.60;;;;;;5003903;28;20473;-68
2021/09/03 00:21:37;;;;;;;26.25;11.63;;;9.70;96.60;;;;;;5005377;28;20045;-68
2021/09/03 00:24:03;;;;;;;29.88;12.25;;;9.70;96.80;;;;;;5005067;28;20034;-67
2021/09/03 00:26:28;;;;;;;18.08;10.75;;;9.70;97.00;;;;;;5007010;28;20048;-68
2021/09/03 00:28:54;;;;;;;20.88;10.35;;;9.60;96.50;;;;;;5005880;28;20049;-68
2021/09/03 00:31:20;;;;;;;23.48;10.68;;;9.60;96.50;;;;;;5003024;28;20110;-68
2021/09/03 00:33:45;;;;;;;24.23;11.43;;;9.50;96.40;;;;;;5004384;28;20030;-68
2021/09/03 00:36:11;;;;;;;28.77;12.02;;;9.60;96.60;;;;;;5006703;28;20052;-68
2021/09/03 00:38:36;;;;;;;23.35;10.95;;;9.60;96.70;;;;;;5000888;28;20511;-69
2021/09/03 00:41:02;;;;;;;25.13;11.75;;;9.60;97.00;;;;;;5006706;28;20038;-68
2021/09/03 00:43:28;;;;;;;28.63;11.82;;;9.50;96.70;;;;;;5000896;28;20417;-69
2021/09/03 00:45:54;;;;;;;31.17;13.07;;;9.50;96.70;;;;;;5003976;28;20310;-69
2021/09/03 00:48:20;;;;;;;26.48;11.68;;;9.50;96.90;;;;;;5005403;28;20056;-66
2021/09/03 00:50:46;;;;;;;21.13;10.40;;;9.50;96.90;;;;;;5015768;28;20030;-68
2021/09/03 00:53:12;;;;;;;25.63;11.05;;;9.40;96.90;;;;;;5007387;28;20489;-68
2021/09/03 00:55:38;;;;;;;19.92;10.73;;;9.40;96.90;;;;;;5006356;28;20042;-68
2021/09/03 00:58:03;;;;;;;20.42;10.00;;;9.40;97.10;;;;;;5005410;28;20049;-68
2021/09/03 01:00:29;;;;;;;21.90;10.20;;;9.40;97.10;;;;;;5006385;28;20412;-66
2021/09/03 01:02:55;;;;;;;21.27;9.98;;;9.30;97.00;;;;;;5005432;28;20069;-69
2021/09/03 01:05:23;;;;;;;20.50;10.30;;;9.30;97.10;;;;;;5005608;28;20746;-69
2021/09/03 01:07:50;;;;;;;19.10;9.80;;;9.30;97.00;;;;;;5001661;28;20030;-68
2021/09/03 01:10:19;;;;;;;18.38;8.93;;;9.30;96.80;;;;;;5008436;28;20033;-68
2021/09/03 01:12:44;;;;;;;22.02;9.95;;;9.30;96.90;;;;;;5012227;28;20026;-67
2021/09/03 01:15:10;;;;;;;22.10;9.93;;;9.30;97.10;;;;;;5002027;28;20030;-68
2021/09/03 01:17:37;;;;;;;17.70;9.80;;;9.30;97.10;;;;;;5000478;28;20034;-69
2021/09/03 01:20:05;;;;;;;20.48;9.27;;;9.20;97.00;;;;;;5006343;28;20041;-68
2021/09/03 01:22:31;;;;;;;17.08;8.93;;;9.20;97.00;;;;;;4983467;28;20205;-67
2021/09/03 01:24:56;;;;;;;22.67;10.20;;;9.20;96.90;;;;;;5003145;28;20147;-68
2021/09/03 01:27:22;;;;;;;31.08;11.45;;;9.20;96.90;;;;;;5006321;28;20414;-66
2021/09/03 01:29:48;;;;;;;33.25;12.50;;;9.30;97.20;;;;;;5010691;28;20026;-68
2021/09/03 01:32:13;;;;;;;32.35;10.32;;;9.30;97.40;;;;;;5011788;28;20117;-68
2021/09/03 01:34:39;;;;;;;17.58;8.73;;;9.20;97.40;;;;;;5002915;28;20049;-68
2021/09/03 01:37:04;;;;;;;17.15;8.32;;;9.10;97.30;;;;;;5004161;28;20049;-68
2021/09/03 01:39:30;;;;;;;17.55;8.38;;;9.20;97.10;;;;;;5005852;28;20030;-67
2021/09/03 01:41:56;;;;;;;24.80;9.15;;;9.10;96.80;;;;;;5005715;28;20164;-68
2021/09/03 01:44:21;;;;;;;20.85;9.15;;;9.10;96.60;;;;;;5003296;28;20156;-69
2021/09/03 01:46:47;;;;;;;22.48;10.02;;;9.10;96.60;;;;;;5004508;28;20018;-68
2021/09/03 01:49:13;;;;;;;25.73;11.73;;;9.10;96.90;;;;;;5004801;28;20032;-67
2021/09/03 01:51:38;;;;;;;22.52;11.25;;;9.20;97.00;;;;;;5005770;28;20044;-68
2021/09/03 01:54:04;;;;;;;30.23;11.68;;;9.20;97.10;;;;;;5006131;28;20424;-69
2021/09/03 01:56:29;;;;;;;22.50;10.38;;;9.20;97.30;;;;;;5005238;28;20285;-69
2021/09/03 01:58:55;;;;;;;30.58;10.90;;;9.10;97.20;;;;;;5003334;28;20100;-68
2021/09/03 02:01:20;;;;;;;20.00;10.15;;;9.10;97.40;;;;;;5002371;28;20532;-67
2021/09/03 02:03:46;;;;;;;21.58;10.13;;;9.00;97.30;;;;;;5005282;28;20021;-69
2021/09/03 02:06:12;;;;;;;21.08;10.13;;;9.00;97.30;;;;;;5004991;28;20457;-68
2021/09/03 02:08:37;;;;;;;30.38;11.18;;;9.00;97.20;;;;;;5004819;28;20174;-68
2021/09/03 02:11:03;;;;;;;25.40;11.65;;;9.00;97.30;;;;;;5010240;28;20489;-68
2021/09/03 02:13:28;;;;;;;28.15;12.00;;;9.00;97.30;;;;;;5003675;28;20022;-67
2021/09/03 02:15:54;;;;;;;28.27;12.52;;;9.00;97.40;;;;;;5004325;28;20523;-69
2021/09/03 02:18:20;;;;;;;39.40;13.27;;;9.00;97.40;;;;;;5004180;28;20029;-68
2021/09/03 02:20:45;;;;;;;57.08;12.93;;;9.00;97.40;;;;;;5005463;28;20025;-68
2021/09/03 02:23:11;;;;;;;42.63;13.95;;;9.10;97.50;;;;;;5004144;28;20033;-67
2021/09/03 02:25:37;;;;;;;36.17;12.13;;;9.10;97.70;;;;;;5005504;28;20573;-67
2021/09/03 02:28:04;;;;;;;37.80;11.55;;;9.00;97.80;;;;;;5003896;28;20037;-66
2021/09/03 02:30:30;;;;;;;31.98;11.65;;;9.00;97.80;;;;;;5014471;28;20060;-65
2021/09/03 02:32:55;;;;;;;31.65;12.45;;;9.00;97.70;;;;;;5001131;28;20251;-68
2021/09/03 02:35:21;;;;;;;33.28;12.65;;;8.90;97.80;;;;;;4997433;28;20022;-66
2021/09/03 02:37:47;;;;;;;32.72;13.50;;;8.90;97.80;;;;;;5004177;28;20044;-66
2021/09/03 02:40:13;;;;;;;36.50;13.30;;;8.90;97.80;;;;;;5009129;28;20291;-67
2021/09/03 02:42:38;;;;;;;37.55;14.00;;;8.90;97.90;;;;;;5001421;28;20030;-66
2021/09/03 02:45:05;;;;;;;36.53;14.40;;;8.90;97.90;;;;;;4982545;28;20034;-67
2021/09/03 02:47:32;;;;;;;34.95;13.48;;;8.90;97.90;;;;;;5005292;28;20022;-66
2021/09/03 02:49:57;;;;;;;34.55;13.88;;;8.90;98.00;;;;;;5003080;28;20111;-66
2021/09/03 02:52:23;;;;;;;37.33;13.77;;;8.90;98.00;;;;;;5000927;28;20077;-66
2021/09/03 02:54:48;;;;;;;25.73;12.82;;;8.80;98.00;;;;;;5002402;28;20045;-67
2021/09/03 02:57:14;;;;;;;35.75;13.48;;;8.80;97.90;;;;;;5003031;28;20038;-65
2021/09/03 02:59:40;;;;;;;32.47;13.95;;;8.80;98.00;;;;;;4996425;28;20142;-67
2021/09/03 03:02:05;;;;;;;40.70;15.15;;;8.80;98.00;;;;;;4989803;28;20034;-69
2021/09/03 03:04:31;;;;;;;51.22;14.57;;;8.80;98.00;;;;;;4995271;28;20098;-69
2021/09/03 03:06:56;;;;;;;45.75;14.68;;;8.80;98.00;;;;;;5005071;28;20022;-67
2021/09/03 03:09:22;;;;;;;27.67;14.38;;;8.80;98.00;;;;;;5010826;28;20029;-67
2021/09/03 03:11:47;;;;;;;36.17;14.98;;;8.70;98.10;;;;;;5004303;28;20039;-69
2021/09/03 03:14:26;;;;;;;48.80;15.45;;;8.70;98.20;;;;;;5004838;28;20041;-67
2021/09/03 03:16:54;;;;;;;68.22;16.70;;;8.70;98.20;;;;;;4996497;28;20049;-69
2021/09/03 03:19:19;;;;;;;42.28;15.57;;;8.70;98.20;;;;;;4998374;28;20053;-69
2021/09/03 03:21:45;;;;;;;43.28;15.95;;;8.70;98.30;;;;;;4997187;28;20120;-68
2021/09/03 03:24:11;;;;;;;33.42;14.82;;;8.70;98.10;;;;;;5003748;28;20116;-69
2021/09/03 03:26:36;;;;;;;43.58;14.77;;;8.70;98.20;;;;;;5001444;28;21528;-69
2021/09/03 03:29:03;;;;;;;40.28;14.32;;;8.60;98.20;;;;;;5004984;28;20030;-69
2021/09/03 03:31:31;;;;;;;38.45;15.00;;;8.60;98.20;;;;;;5002984;28;20109;-69
2021/09/03 03:34:00;;;;;;;36.00;14.50;;;8.60;98.20;;;;;;5001340;28;20033;-69
2021/09/03 03:36:26;;;;;;;46.28;14.52;;;8.60;98.20;;;;;;5000797;28;20026;-69
2021/09/03 03:38:52;;;;;;;35.15;15.32;;;8.50;98.20;;;;;;5002805;28;20084;-69
2021/09/03 03:41:17;;;;;;;36.63;14.80;;;8.60;98.20;;;;;;4994440;28;20107;-70
2021/09/03 03:43:43;;;;;;;34.85;14.98;;;8.50;98.10;;;;;;5004229;28;20026;-69
2021/09/03 03:46:09;;;;;;;35.60;13.57;;;8.50;98.20;;;;;;4996504;28;20030;-68
2021/09/03 03:48:34;;;;;;;38.38;13.98;;;8.50;98.20;;;;;;5002185;28;20559;-69
2021/09/03 03:51:00;;;;;;;38.50;14.45;;;8.50;98.10;;;;;;5001880;28;20492;-68
2021/09/03 03:53:26;;;;;;;61.60;15.52;;;8.50;98.10;;;;;;5002349;28;20048;-69
2021/09/03 03:55:52;;;;;;;81.35;15.48;;;8.50;98.20;;;;;;5001742;28;20030;-69
2021/09/03 03:58:17;;;;;;;54.45;15.57;;;8.40;98.20;;;;;;5001926;28;20034;-69
2021/09/03 04:00:43;;;;;;;49.83;15.88;;;8.40;98.20;;;;;;5001655;28;20109;-69
2021/09/03 04:03:09;;;;;;;55.67;14.43;;;8.40;98.20;;;;;;5001378;28;20017;-69
2021/09/03 04:05:35;;;;;;;51.78;14.98;;;8.40;98.10;;;;;;4996360;28;20026;-69
2021/09/03 04:08:00;;;;;;;55.72;16.33;;;8.40;98.20;;;;;;5004716;28;20029;-67
2021/09/03 04:10:26;;;;;;;58.83;15.77;;;8.30;98.20;;;;;;4990206;28;20019;-67
2021/09/03 04:12:52;;;;;;;66.35;14.40;;;8.30;98.20;;;;;;4998498;28;20799;-69
2021/09/03 04:15:18;;;;;;;50.25;15.52;;;8.30;98.20;;;;;;4994480;28;20674;-69
2021/09/03 04:17:44;;;;;;;48.75;15.38;;;8.30;98.30;;;;;;4988405;28;20034;-69
2021/09/03 04:20:10;;;;;;;42.90;15.40;;;8.40;98.30;;;;;;4995401;28;20548;-64
2021/09/03 04:22:36;;;;;;;37.72;16.83;;;8.40;98.30;;;;;;4997977;28;20026;-64
2021/09/03 04:25:03;;;;;;;37.08;15.80;;;8.50;98.40;;;;;;5003795;28;20030;-64
2021/09/03 04:27:29;;;;;;;35.42;16.58;;;8.60;98.40;;;;;;5002881;28;20017;-66
2021/09/03 04:29:55;;;;;;;31.17;15.00;;;8.80;98.30;;;;;;4996934;28;20036;-65
2021/09/03 04:32:20;;;;;;;31.83;15.25;;;8.80;98.30;;;;;;5005024;28;20363;-65
2021/09/03 04:34:46;;;;;;;28.45;14.63;;;9.00;98.30;;;;;;5005958;28;20037;-63
2021/09/03 04:37:12;;;;;;;28.42;14.55;;;9.00;98.10;;;;;;5003386;28;20033;-66
2021/09/03 04:39:38;;;;;;;31.30;15.50;;;9.10;98.10;;;;;;5007011;28;20088;-64
2021/09/03 04:42:04;;;;;;;35.85;16.55;;;9.30;98.10;;;;;;5005245;28;20033;-63
2021/09/03 04:44:30;;;;;;;36.10;16.27;;;9.40;98.00;;;;;;5005307;28;20033;-64
2021/09/03 04:46:55;;;;;;;35.65;16.08;;;9.50;98.10;;;;;;5007000;28;20108;-63
2021/09/03 04:49:21;;;;;;;34.05;16.90;;;9.60;97.90;;;;;;5008790;28;20097;-62
2021/09/03 04:51:47;;;;;;;41.72;19.58;;;9.60;98.00;;;;;;4997627;28;20040;-61
2021/09/03 04:54:12;;;;;;;40.35;17.85;;;9.70;98.00;;;;;;5006680;28;20033;-63
2021/09/03 04:56:38;;;;;;;34.53;17.10;;;9.80;97.90;;;;;;5000160;28;20084;-63
2021/09/03 04:59:05;;;;;;;33.22;17.27;;;9.90;98.00;;;;;;4996655;28;20113;-62
2021/09/03 05:01:30;;;;;;;34.92;17.45;;;10.00;98.00;;;;;;5003263;28;20395;-63
2021/09/03 05:03:56;;;;;;;29.75;16.05;;;10.00;98.00;;;;;;4984275;28;20022;-63
2021/09/03 05:06:22;;;;;;;31.38;15.38;;;10.10;97.90;;;;;;5006243;28;20030;-64
2021/09/03 05:08:47;;;;;;;22.13;14.48;;;10.10;97.80;;;;;;4999405;28;20028;-64
2021/09/03 05:11:13;;;;;;;30.02;14.98;;;10.10;97.80;;;;;;5001959;28;20033;-63
2021/09/03 05:13:39;;;;;;;25.33;14.45;;;10.20;97.70;;;;;;5003906;28;20496;-64
2021/09/03 05:16:05;;;;;;;24.23;14.95;;;10.20;97.30;;;;;;4993154;28;20102;-61
2021/09/03 05:18:30;;;;;;;23.52;13.73;;;10.30;97.40;;;;;;5002896;28;20021;-64
2021/09/03 05:20:56;;;;;;;25.48;14.30;;;10.30;97.50;;;;;;5002367;28;20033;-64
2021/09/03 05:23:22;;;;;;;22.05;13.23;;;10.30;97.30;;;;;;5004885;28;20034;-64
2021/09/03 05:25:48;;;;;;;23.38;12.95;;;10.30;97.20;;;;;;5003019;28;20072;-63
2021/09/03 05:28:13;;;;;;;23.40;12.95;;;10.40;97.30;;;;;;5004681;28;20041;-62
2021/09/03 05:30:39;;;;;;;23.52;12.93;;;10.30;97.20;;;;;;4998281;28;20113;-64
2021/09/03 05:33:04;;;;;;;20.02;12.75;;;10.40;97.20;;;;;;5005772;28;20076;-63
2021/09/03 05:35:30;;;;;;;25.73;11.85;;;10.40;97.20;;;;;;4991348;28;20030;-63
2021/09/03 05:37:56;;;;;;;19.25;11.82;;;10.50;97.20;;;;;;5001213;28;20060;-63
2021/09/03 05:40:23;;;;;;;23.98;12.25;;;10.60;97.10;;;;;;4986779;28;20046;-62
2021/09/03 05:42:49;;;;;;;20.63;12.18;;;10.60;97.10;;;;;;5009725;28;20026;-62
2021/09/03 05:45:16;;;;;;;21.35;12.20;;;10.70;97.00;;;;;;5005955;28;20014;-64
2021/09/03 05:47:45;;;;;;;21.65;13.15;;;10.70;96.90;;;;;;5000858;28;20029;-64
2021/09/03 05:50:13;;;;;;;19.50;11.88;;;10.80;96.90;;;;;;5003339;28;20313;-64
2021/09/03 05:52:38;;;;;;;19.58;11.35;;;10.80;96.90;;;;;;5000912;28;20049;-64
2021/09/03 05:55:04;;;;;;;21.45;12.23;;;10.80;96.70;;;;;;5005765;28;20038;-64
2021/09/03 05:57:30;;;;;;;20.65;11.82;;;11.00;96.70;;;;;;5004211;28;20033;-62
2021/09/03 05:59:56;;;;;;;17.85;12.13;;;11.00;96.70;;;;;;5005002;28;20422;-64
2021/09/03 06:02:22;;;;;;;19.40;11.90;;;11.10;96.70;;;;;;4993005;28;20026;-64
2021/09/03 06:04:47;;;;;;;21.63;12.30;;;11.20;96.80;;;;;;5005437;28;20022;-64
2021/09/03 06:07:13;;;;;;;23.35;12.93;;;11.40;96.80;;;;;;5005305;28;20030;-63
2021/09/03 06:09:39;;;;;;;18.25;11.95;;;11.40;96.50;;;;;;5002807;28;20445;-65
2021/09/03 06:12:05;;;;;;;24.13;12.57;;;11.50;96.40;;;;;;5000015;28;20030;-62
2021/09/03 06:14:31;;;;;;;19.98;12.52;;;11.60;96.20;;;;;;5001507;28;20084;-64
2021/09/03 06:16:56;;;;;;;22.92;12.98;;;11.70;96.30;;;;;;5001433;28;20037;-64
2021/09/03 06:19:22;;;;;;;19.17;11.90;;;11.80;96.30;;;;;;5004611;28;20282;-63
2021/09/03 06:21:48;;;;;;;22.02;12.32;;;11.90;96.30;;;;;;5000555;28;20065;-64
2021/09/03 06:24:29;;;;;;;20.15;13.57;;;12.10;96.20;;;;;;5007312;28;20416;-65
2021/09/03 06:27:00;;;;;;;22.00;12.43;;;12.10;96.00;;;;;;5008681;28;20178;-63
2021/09/03 06:29:42;;;;;;;23.38;12.80;;;12.20;96.20;;;;;;5004840;28;20048;-64
2021/09/03 06:32:16;;;;;;;20.10;12.55;;;12.30;95.80;;;;;;4996283;28;20037;-63
2021/09/03 06:34:44;;;;;;;25.88;13.98;;;12.50;96.10;;;;;;5000328;28;20132;-65
2021/09/03 06:37:10;;;;;;;24.92;13.13;;;12.60;95.70;;;;;;5003776;28;20084;-63
2021/09/03 06:39:36;;;;;;;26.00;14.27;;;12.70;95.90;;;;;;5000875;28;20456;-65
2021/09/03 06:42:04;;;;;;;26.90;14.57;;;12.90;95.70;;;;;;5004255;28;20092;-62
2021/09/03 06:44:30;;;;;;;24.10;15.38;;;13.00;95.60;;;;;;4997693;28;20113;-65
2021/09/03 06:46:55;;;;;;;25.45;15.10;;;13.00;95.30;;;;;;5000261;28;20025;-65
2021/09/03 06:49:21;;;;;;;27.40;14.73;;;13.10;95.30;;;;;;5000784;28;20026;-63
2021/09/03 06:51:47;;;;;;;23.75;14.75;;;13.20;95.40;;;;;;5001956;28;20132;-62
2021/09/03 06:54:12;;;;;;;26.23;14.50;;;13.20;95.10;;;;;;5001371;28;20061;-63
2021/09/03 06:56:38;;;;;;;24.40;14.63;;;13.30;95.00;;;;;;5006240;28;20049;-65
2021/09/03 06:59:04;;;;;;;26.50;14.57;;;13.30;94.60;;;;;;4998751;28;20034;-65
2021/09/03 07:01:30;;;;;;;24.60;14.30;;;13.40;94.70;;;;;;4999342;28;20115;-65
2021/09/03 07:03:56;;;;;;;25.15;15.00;;;13.60;94.40;;;;;;5001060;28;20037;-65
2021/09/03 07:06:21;;;;;;;25.52;15.30;;;13.60;94.30;;;;;;5005912;28;20032;-65
2021/09/03 07:08:47;;;;;;;27.35;16.05;;;13.60;94.20;;;;;;4997578;28;20031;-63
2021/09/03 07:11:13;;;;;;;25.48;13.23;;;13.70;94.20;;;;;;5002656;28;20058;-64
2021/09/03 07:13:38;;;;;;;24.40;14.02;;;13.80;93.90;;;;;;4999897;28;20022;-64
2021/09/03 07:16:04;;;;;;;26.60;14.18;;;13.80;93.80;;;;;;5005494;28;20026;-63
2021/09/03 07:18:30;;;;;;;20.08;12.82;;;13.90;93.60;;;;;;4990730;28;20084;-62
2021/09/03 07:20:56;;;;;;;29.52;14.55;;;14.00;93.50;;;;;;4994676;28;20022;-64
2021/09/03 07:23:22;;;;;;;25.48;13.73;;;14.00;93.80;;;;;;5003716;28;20595;-65
2021/09/03 07:25:48;;;;;;;26.77;14.55;;;14.10;93.60;;;;;;5000542;28;20405;-65
2021/09/03 07:28:14;;;;;;;21.48;14.68;;;14.20;93.90;;;;;;5004955;28;20033;-65
2021/09/03 07:30:40;;;;;;;22.52;13.57;;;14.30;93.70;;;;;;5008782;28;20040;-65
2021/09/03 07:33:06;;;;;;;21.60;13.13;;;14.50;93.60;;;;;;5003763;28;20033;-65
2021/09/03 07:35:31;;;;;;;22.48;13.88;;;14.60;93.00;;;;;;5002015;28;20496;-64
2021/09/03 07:37:57;;;;;;;23.60;12.68;;;14.60;92.80;;;;;;5001454;28;20034;-64
2021/09/03 07:40:25;;;;;;;23.42;13.55;;;14.70;92.80;;;;;;5000786;28;20027;-66
2021/09/03 07:42:51;;;;;;;21.48;12.52;;;14.90;92.70;;;;;;4991856;28;20025;-64
2021/09/03 07:45:16;;;;;;;22.90;12.57;;;14.80;92.70;;;;;;5004097;28;20022;-65
2021/09/03 07:47:42;;;;;;;23.40;12.48;;;14.80;92.40;;;;;;5002831;28;20025;-63
2021/09/03 07:50:08;;;;;;;20.70;11.93;;;14.90;92.40;;;;;;5002892;28;20029;-65
2021/09/03 07:52:34;;;;;;;21.92;12.07;;;14.90;92.50;;;;;;4996774;28;20333;-64
2021/09/03 07:54:59;;;;;;;21.77;12.57;;;15.00;92.40;;;;;;5003450;28;20541;-66
2021/09/03 07:57:25;;;;;;;25.02;12.38;;;15.00;92.20;;;;;;4990651;28;20081;-64
2021/09/03 07:59:50;;;;;;;26.00;12.20;;;15.20;91.80;;;;;;4999805;28;20504;-63
2021/09/03 08:02:16;;;;;;;21.70;11.20;;;15.30;91.60;;;;;;5008111;28;20018;-63
2021/09/03 08:04:41;;;;;;;24.63;10.80;;;15.40;91.20;;;;;;5010314;28;20364;-65
2021/09/03 08:07:07;;;;;;;20.17;10.15;;;15.40;90.90;;;;;;5001171;28;20018;-64
2021/09/03 08:09:33;;;;;;;22.00;10.43;;;15.50;90.50;;;;;;5007324;28;20022;-64
2021/09/03 08:11:58;;;;;;;21.90;10.65;;;15.50;90.20;;;;;;5007030;28;20332;-65
2021/09/03 08:14:24;;;;;;;21.38;10.50;;;15.70;90.40;;;;;;5008661;28;20564;-66
2021/09/03 08:16:50;;;;;;;22.58;10.32;;;15.70;89.70;;;;;;5002142;28;20053;-66
2021/09/03 08:19:15;;;;;;;18.08;10.10;;;15.60;90.00;;;;;;5002189;28;20026;-66
2021/09/03 08:21:41;;;;;;;18.02;9.85;;;15.70;89.70;;;;;;5008302;28;20523;-66
2021/09/03 08:24:07;;;;;;;20.38;9.07;;;15.60;90.00;;;;;;5004006;28;20497;-66
2021/09/03 08:26:32;;;;;;;18.52;9.73;;;15.50;89.60;;;;;;5004086;28;20034;-66
2021/09/03 08:28:58;;;;;;;19.13;9.88;;;15.60;90.20;;;;;;5002990;28;20393;-66
2021/09/03 08:31:24;;;;;;;21.45;8.93;;;15.60;89.80;;;;;;4995664;28;20037;-66
2021/09/03 08:33:50;;;;;;;18.27;8.77;;;15.70;89.30;;;;;;5006635;28;20018;-66
2021/09/03 08:36:16;;;;;;;18.60;8.38;;;15.80;88.80;;;;;;5003947;28;20478;-66
2021/09/03 08:38:42;;;;;;;17.30;8.38;;;15.80;88.10;;;;;;4995484;28;20166;-66
2021/09/03 08:41:08;;;;;;;16.25;8.63;;;15.80;88.60;;;;;;4994292;28;20030;-67
2021/09/03 08:43:34;;;;;;;16.17;8.27;;;15.70;88.60;;;;;;5007812;28;20034;-66
2021/09/03 08:45:59;;;;;;;21.95;8.23;;;15.70;88.60;;;;;;4998193;28;20023;-66
2021/09/03 08:48:25;;;;;;;20.17;8.30;;;15.80;88.90;;;;;;4997377;28;20034;-66
2021/09/03 08:50:57;;;;;;;16.65;8.10;;;15.80;87.70;;;;;;4998191;28;20030;-66
2021/09/03 08:53:24;;;;;;;20.75;7.47;;;15.90;87.90;;;;;;4999495;28;20054;-66
2021/09/03 08:55:52;;;;;;;24.10;7.40;;;16.20;87.10;;;;;;5008321;28;20022;-66
2021/09/03 08:58:19;;;;;;;17.58;7.57;;;16.20;86.90;;;;;;5006710;28;20036;-66
2021/09/03 09:01:02;;;;;;;17.63;7.95;;;16.20;86.90;;;;;;5004096;28;20057;-66
2021/09/03 09:03:34;;;;;;;17.17;7.53;;;16.10;86.60;;;;;;4999888;28;20489;-66
2021/09/03 09:05:59;;;;;;;17.55;8.23;;;16.20;85.90;;;;;;5005033;28;20026;-66
2021/09/03 09:08:28;;;;;;;16.60;8.68;;;16.20;86.50;;;;;;5000225;28;20052;-65
2021/09/03 09:11:13;;;;;;;13.90;7.97;;;16.20;86.00;;;;;;5009582;28;20412;-65
2021/09/03 09:13:41;;;;;;;17.77;7.78;;;16.20;86.30;;;;;;5003483;28;20117;-66
2021/09/03 09:16:08;;;;;;;17.73;7.63;;;16.50;85.20;;;;;;5007190;28;20081;-66
2021/09/03 09:18:39;;;;;;;17.13;8.20;;;16.50;85.10;;;;;;4995033;28;20026;-66
2021/09/03 09:21:29;;;;;;;17.42;8.02;;;16.50;84.90;;;;;;5003841;28;23178;-66
2021/09/03 09:24:03;;;;;;;18.45;7.53;;;16.50;84.60;;;;;;4986331;28;20512;-65
2021/09/03 09:26:41;;;;;;;19.65;7.95;;;16.40;84.70;;;;;;4993407;28;20034;-65
2021/09/03 09:29:19;;;;;;;15.63;7.80;;;16.40;84.30;;;;;;4996329;28;20643;-66
2021/09/03 09:31:47;;;;;;;17.42;8.25;;;16.70;84.20;;;;;;5003657;28;20456;-66
2021/09/03 09:34:18;;;;;;;13.75;7.50;;;16.70;83.20;;;;;;5002113;28;20385;-66
2021/09/03 09:36:45;;;;;;;11.50;7.15;;;16.80;82.70;;;;;;5003801;28;20516;-66
2021/09/03 09:39:11;;;;;;;13.43;7.28;;;17.00;82.30;;;;;;4999789;28;20030;-66
2021/09/03 09:41:37;;;;;;;17.20;7.93;;;16.90;81.80;;;;;;5004881;28;20026;-66
2021/09/03 09:44:03;;;;;;;13.32;7.45;;;17.00;82.50;;;;;;5002227;28;20037;-66
2021/09/03 09:46:31;;;;;;;14.63;6.57;;;17.30;81.80;;;;;;5000370;28;20076;-66
2021/09/03 09:49:06;;;;;;;14.40;7.00;;;17.20;82.10;;;;;;5002438;28;20048;-66
2021/09/03 09:51:36;;;;;;;13.10;6.95;;;17.30;80.70;;;;;;4999257;28;20176;-66
2021/09/03 09:54:11;;;;;;;15.60;7.32;;;17.40;81.20;;;;;;4999742;28;20038;-66
2021/09/03 09:56:41;;;;;;;13.88;7.07;;;17.50;81.40;;;;;;5009402;28;20026;-67
2021/09/03 09:59:09;;;;;;;13.18;7.30;;;17.70;81.00;;;;;;5003788;28;20099;-66
2021/09/03 10:01:37;;;;;;;12.25;6.85;;;17.60;81.00;;;;;;4989338;28;20052;-66
2021/09/03 10:04:12;;;;;;;13.45;6.78;;;17.60;80.00;;;;;;4997713;28;20527;-66
2021/09/03 10:06:39;;;;;;;14.00;6.78;;;17.50;79.60;;;;;;4996569;28;20053;-66
2021/09/03 10:09:08;;;;;;;11.48;6.65;;;17.70;79.20;;;;;;4997686;28;20062;-66
2021/09/03 10:11:36;;;;;;;14.70;6.88;;;17.80;79.50;;;;;;5001437;28;20459;-66
2021/09/03 10:14:03;;;;;;;12.10;7.20;;;17.70;78.60;;;;;;5004910;28;20113;-66
2021/09/03 10:16:29;;;;;;;13.68;7.38;;;17.70;80.50;;;;;;5000972;28;20121;-66
2021/09/03 10:18:58;;;;;;;15.55;7.00;;;17.80;79.00;;;;;;5002457;28;20592;-66
2021/09/03 10:21:26;;;;;;;14.60;7.22;;;18.00;78.70;;;;;;4993596;28;20045;-66
2021/09/03 10:24:02;;;;;;;16.23;7.60;;;18.00;78.40;;;;;;5005829;28;20022;-66
2021/09/03 10:26:41;;;;;;;12.65;7.15;;;18.30;78.10;;;;;;5000574;28;20168;-66
2021/09/03 10:29:21;;;;;;;13.63;6.90;;;18.20;78.00;;;;;;5005890;28;21194;-66
2021/09/03 10:32:10;;;;;;;12.35;6.57;;;18.60;76.60;;;;;;4970631;28;20449;-66
2021/09/03 10:34:54;;;;;;;16.45;7.50;;;18.70;75.40;;;;;;5005550;28;20408;-66
2021/09/03 10:37:20;;;;;;;14.35;6.50;;;19.00;76.40;;;;;;4994296;28;20366;-66
2021/09/03 10:39:58;;;;;;;14.95;7.00;;;19.30;75.00;;;;;;5004626;28;20185;-66
2021/09/03 10:45:15;;;;;;;14.35;6.90;;;19.50;74.20;;;;;;5001897;28;20194;-66
2021/09/03 10:47:45;;;;;;;13.23;6.97;;;19.40;74.60;;;;;;5002744;28;20033;-66
2021/09/03 10:50:32;;;;;;;13.70;6.85;;;19.60;73.60;;;;;;5002537;28;20033;-66
2021/09/03 10:53:07;;;;;;;14.43;6.95;;;19.50;73.00;;;;;;5003591;28;20477;-66
2021/09/03 10:55:48;;;;;;;16.10;6.95;;;19.30;73.90;;;;;;4997575;28;20030;-66
2021/09/03 10:58:33;;;;;;;12.48;7.13;;;19.10;73.30;;;;;;5000642;28;20408;-66
2021/09/03 11:01:13;;;;;;;11.50;6.85;;;19.50;72.90;;;;;;4997541;28;20026;-66
2021/09/03 11:03:52;;;;;;;14.95;6.93;;;19.50;72.00;;;;;;5013100;28;20538;-66
2021/09/03 11:06:26;;;;;;;12.85;7.35;;;19.80;72.60;;;;;;5001585;28;20038;-67
2021/09/03 11:08:54;;;;;;;11.18;7.03;;;20.00;72.70;;;;;;5000018;28;20409;-67
2021/09/03 11:11:21;;;;;;;16.00;7.20;;;20.20;69.90;;;;;;5002683;28;20048;-67
2021/09/03 11:13:47;;;;;;;15.57;7.70;;;20.40;70.40;;;;;;5003585;28;20030;-67
2021/09/03 11:16:35;;;;;;;12.85;7.13;;;20.30;71.00;;;;;;5001720;28;20022;-67
2021/09/03 11:19:20;;;;;;;13.43;6.82;;;20.20;71.20;;;;;;5000692;28;20030;-67
2021/09/03 11:21:53;;;;;;;15.30;7.43;;;20.40;70.20;;;;;;5002862;28;20083;-67
2021/09/03 11:24:24;;;;;;;12.70;6.78;;;20.50;70.70;;;;;;4999828;28;20485;-67
2021/09/03 11:26:52;;;;;;;11.30;6.38;;;21.00;70.50;;;;;;4994499;28;20050;-67
2021/09/03 11:29:30;;;;;;;15.68;7.80;;;21.30;69.40;;;;;;4998431;28;20024;-67
2021/09/03 11:32:09;;;;;;;13.02;8.18;;;21.00;67.80;;;;;;5002724;28;20412;-67
2021/09/03 11:34:53;;;;;;;13.70;7.43;;;21.10;67.80;;;;;;4998310;28;20023;-67
2021/09/03 11:37:36;;;;;;;13.02;7.78;;;21.40;66.90;;;;;;5002071;28;20030;-67
2021/09/03 11:40:08;;;;;;;11.73;7.00;;;21.40;67.90;;;;;;5005850;28;20105;-67
2021/09/03 11:42:37;;;;;;;13.05;7.60;;;21.30;66.20;;;;;;5008742;28;20022;-67
2021/09/03 11:45:12;;;;;;;13.10;7.10;;;21.30;67.10;;;;;;4990328;28;20030;-67
2021/09/03 11:47:45;;;;;;;12.90;7.70;;;21.50;65.60;;;;;;5002507;28;20021;-67
2021/09/03 11:50:17;;;;;;;11.93;6.80;;;21.70;67.30;;;;;;5000726;28;20401;-67
2021/09/03 11:52:44;;;;;;;12.95;7.22;;;21.70;65.80;;;;;;4999103;28;20045;-67
2021/09/03 11:55:16;;;;;;;11.15;7.03;;;21.90;66.40;;;;;;5003052;28;20307;-67
2021/09/03 11:57:56;;;;;;;13.65;7.32;;;22.00;63.90;;;;;;4999978;28;20034;-67
2021/09/03 12:00:24;;;;;;;15.57;7.20;;;21.90;63.90;;;;;;5002324;28;20533;-67
2021/09/03 12:02:51;;;;;;;15.38;7.13;;;22.10;65.40;;;;;;5002325;28;20038;-67
2021/09/03 12:05:18;;;;;;;13.90;6.97;;;22.10;66.20;;;;;;5003831;28;20097;-67
2021/09/03 12:08:22;;;;;;;16.23;6.63;;;22.50;63.50;;;;;;4994894;28;20038;-66
2021/09/03 12:11:09;;;;;;;13.20;6.35;;;22.20;63.40;;;;;;4959375;28;20023;-66
2021/09/03 12:13:43;;;;;;;14.00;6.78;;;22.10;63.20;;;;;;5004220;28;20474;-66
2021/09/03 12:16:15;;;;;;;11.63;6.00;;;22.50;62.50;;;;;;5003962;28;20042;-67
2021/09/03 12:18:44;;;;;;;10.88;5.80;;;22.60;61.20;;;;;;4990846;28;20517;-67
2021/09/03 12:21:19;;;;;;;8.05;5.38;;;22.60;61.10;;;;;;4999760;28;20109;-67
2021/09/03 12:23:47;;;;;;;12.23;6.30;;;22.70;62.70;;;;;;5001415;28;20063;-67
2021/09/03 12:26:26;;;;;;;14.02;5.95;;;22.90;61.70;;;;;;4994469;28;20014;-67
2021/09/03 12:28:54;;;;;;;12.10;6.32;;;23.30;60.70;;;;;;4996033;28;20033;-67
2021/09/03 12:31:25;;;;;;;12.05;6.13;;;23.40;59.80;;;;;;4987322;28;20049;-67
2021/09/03 12:33:54;;;;;;;10.18;5.93;;;23.30;60.20;;;;;;5008180;28;20025;-66
2021/09/03 12:36:27;;;;;;;12.80;6.05;;;23.70;60.10;;;;;;4999844;28;20046;-67
2021/09/03 12:39:02;;;;;;;9.95;5.60;;;23.40;60.30;;;;;;4996840;28;20028;-67
2021/09/03 12:41:48;;;;;;;15.93;5.68;;;23.70;59.10;;;;;;4997333;28;20045;-72
2021/09/03 12:44:28;;;;;;;13.15;6.00;;;24.20;59.30;;;;;;4999015;28;20041;-67